sensor_id;sensor_type;location;lat;lon;timestamp;temperature;humidity
70366;DHT22;57787;48.216;12.396;2023-03-04T00:00:53;0.00;87.90
70366;DHT22;57787;48.216;12.396;2023-03-04T00:03:23;0.00;88.30
70366;DHT22;57787;48.216;12.396;2023-03-04T00:05:50;0.00;88.10
70366;DHT22;57787;48.216;12.396;2023-03-04T00:08:16;-0.10;88.00
70366;DHT22;57787;48.216;12.396;2023-03-04T00:10:43;-0.10;88.10
70366;DHT22;57787;48.216;12.396;2023-03-04T00:13:10;-0.10;88.40
70366;DHT22;57787;48.216;12.396;2023-03-04T00:15:37;-0.10;88.10
70366;DHT22;57787;48.216;12.396;2023-03-04T00:18:04;-0.10;88.80
70366;DHT22;57787;48.216;12.396;2023-03-04T00:20:31;-0.10;88.50
70366;DHT22;57787;48.216;12.396;2023-03-04T00:22:59;-0.20;88.70
70366;DHT22;57787;48.216;12.396;2023-03-04T00:25:26;-0.20;88.60
70366;DHT22;57787;48.216;12.396;2023-03-04T00:27:52;-0.20;88.50
70366;DHT22;57787;48.216;12.396;2023-03-04T00:30:19;-0.30;88.60
70366;DHT22;57787;48.216;12.396;2023-03-04T00:32:47;-0.30;88.50
70366;DHT22;57787;48.216;12.396;2023-03-04T00:35:13;-0.30;88.50
70366;DHT22;57787;48.216;12.396;2023-03-04T00:37:40;-0.30;89.00
70366;DHT22;57787;48.216;12.396;2023-03-04T00:40:07;-0.30;88.80
70366;DHT22;57787;48.216;12.396;2023-03-04T00:42:34;-0.30;88.70
70366;DHT22;57787;48.216;12.396;2023-03-04T00:45:01;-0.30;89.00
70366;DHT22;57787;48.216;12.396;2023-03-04T00:47:29;-0.40;89.10
70366;DHT22;57787;48.216;12.396;2023-03-04T00:49:57;-0.40;89.20
70366;DHT22;57787;48.216;12.396;2023-03-04T00:52:23;-0.40;89.10
70366;DHT22;57787;48.216;12.396;2023-03-04T00:54:50;-0.40;89.30
70366;DHT22;57787;48.216;12.396;2023-03-04T00:57:17;-0.40;89.40
70366;DHT22;57787;48.216;12.396;2023-03-04T00:59:44;-0.40;89.60
70366;DHT22;57787;48.216;12.396;2023-03-04T01:02:11;-0.30;89.80
70366;DHT22;57787;48.216;12.396;2023-03-04T01:04:38;-0.40;89.80
70366;DHT22;57787;48.216;12.396;2023-03-04T01:07:07;-0.40;89.90
70366;DHT22;57787;48.216;12.396;2023-03-04T01:09:34;-0.40;90.00
70366;DHT22;57787;48.216;12.396;2023-03-04T01:12:01;-0.30;90.10
70366;DHT22;57787;48.216;12.396;2023-03-04T01:14:28;-0.40;90.20
70366;DHT22;57787;48.216;12.396;2023-03-04T01:16:55;-0.40;90.00
70366;DHT22;57787;48.216;12.396;2023-03-04T01:19:22;-0.40;90.20
70366;DHT22;57787;48.216;12.396;2023-03-04T01:21:49;-0.40;90.20
70366;DHT22;57787;48.216;12.396;2023-03-04T01:24:16;-0.40;90.20
70366;DHT22;57787;48.216;12.396;2023-03-04T01:26:43;-0.40;90.20
70366;DHT22;57787;48.216;12.396;2023-03-04T01:29:12;-0.40;90.40
70366;DHT22;57787;48.216;12.396;2023-03-04T01:31:39;-0.40;90.30
70366;DHT22;57787;48.216;12.396;2023-03-04T01:34:06;-0.40;90.20
70366;DHT22;57787;48.216;12.396;2023-03-04T01:36:35;-0.40;90.10
70366;DHT22;57787;48.216;12.396;2023-03-04T01:39:02;-0.40;90.10
70366;DHT22;57787;48.216;12.396;2023-03-04T01:41:28;-0.40;90.30
70366;DHT22;57787;48.216;12.396;2023-03-04T01:43:55;-0.40;90.20
70366;DHT22;57787;48.216;12.396;2023-03-04T01:46:23;-0.40;90.00
70366;DHT22;57787;48.216;12.396;2023-03-04T01:48:50;-0.50;89.90
70366;DHT22;57787;48.216;12.396;2023-03-04T01:51:17;-0.50;89.90
70366;DHT22;57787;48.216;12.396;2023-03-04T01:53:45;-0.50;89.90
70366;DHT22;57787;48.216;12.396;2023-03-04T01:56:21;-0.50;89.90
70366;DHT22;57787;48.216;12.396;2023-03-04T02:04:09;-0.60;90.00
70366;DHT22;57787;48.216;12.396;2023-03-04T02:06:36;-0.60;90.20
70366;DHT22;57787;48.216;12.396;2023-03-04T02:09:03;-0.60;90.40
70366;DHT22;57787;48.216;12.396;2023-03-04T02:11:31;-0.60;90.40
70366;DHT22;57787;48.216;12.396;2023-03-04T02:13:58;-0.50;90.80
70366;DHT22;57787;48.216;12.396;2023-03-04T02:16:25;-0.60;90.50
70366;DHT22;57787;48.216;12.396;2023-03-04T02:18:53;-0.60;90.40
70366;DHT22;57787;48.216;12.396;2023-03-04T02:21:24;-0.60;90.30
70366;DHT22;57787;48.216;12.396;2023-03-04T02:26:21;-0.60;90.40
70366;DHT22;57787;48.216;12.396;2023-03-04T02:28:50;-0.60;90.80
70366;DHT22;57787;48.216;12.396;2023-03-04T02:31:39;-0.60;91.10
70366;DHT22;57787;48.216;12.396;2023-03-04T02:34:05;-0.50;91.30
70366;DHT22;57787;48.216;12.396;2023-03-04T02:36:33;-0.50;91.60
70366;DHT22;57787;48.216;12.396;2023-03-04T02:39:03;-0.40;91.60
70366;DHT22;57787;48.216;12.396;2023-03-04T02:41:30;-0.40;91.80
70366;DHT22;57787;48.216;12.396;2023-03-04T02:43:57;-0.40;91.70
70366;DHT22;57787;48.216;12.396;2023-03-04T02:46:24;-0.40;91.90
70366;DHT22;57787;48.216;12.396;2023-03-04T02:48:51;-0.40;91.60
70366;DHT22;57787;48.216;12.396;2023-03-04T02:51:18;-0.40;91.40
70366;DHT22;57787;48.216;12.396;2023-03-04T02:53:44;-0.40;91.40
70366;DHT22;57787;48.216;12.396;2023-03-04T02:56:11;-0.40;91.20
70366;DHT22;57787;48.216;12.396;2023-03-04T02:58:38;-0.40;91.10
70366;DHT22;57787;48.216;12.396;2023-03-04T03:01:06;-0.50;90.90
70366;DHT22;57787;48.216;12.396;2023-03-04T03:03:32;-0.50;90.80
70366;DHT22;57787;48.216;12.396;2023-03-04T03:05:59;-0.50;90.80
70366;DHT22;57787;48.216;12.396;2023-03-04T03:08:26;-0.60;90.60
70366;DHT22;57787;48.216;12.396;2023-03-04T03:10:52;-0.60;90.60
70366;DHT22;57787;48.216;12.396;2023-03-04T03:13:19;-0.60;90.40
70366;DHT22;57787;48.216;12.396;2023-03-04T03:15:46;-0.70;90.50
70366;DHT22;57787;48.216;12.396;2023-03-04T03:18:15;-0.70;90.40
70366;DHT22;57787;48.216;12.396;2023-03-04T03:20:42;-0.70;90.60
70366;DHT22;57787;48.216;12.396;2023-03-04T03:23:09;-0.70;90.30
70366;DHT22;57787;48.216;12.396;2023-03-04T03:25:36;-0.70;90.30
70366;DHT22;57787;48.216;12.396;2023-03-04T03:28:02;-0.70;90.20
70366;DHT22;57787;48.216;12.396;2023-03-04T03:30:30;-0.70;90.30
70366;DHT22;57787;48.216;12.396;2023-03-04T03:32:57;-0.80;90.10
70366;DHT22;57787;48.216;12.396;2023-03-04T03:35:23;-0.80;90.10
70366;DHT22;57787;48.216;12.396;2023-03-04T03:37:50;-0.80;90.20
70366;DHT22;57787;48.216;12.396;2023-03-04T03:40:17;-0.80;90.00
70366;DHT22;57787;48.216;12.396;2023-03-04T03:42:44;-0.90;89.80
70366;DHT22;57787;48.216;12.396;2023-03-04T03:45:10;-0.90;89.70
70366;DHT22;57787;48.216;12.396;2023-03-04T03:47:38;-0.90;89.60
70366;DHT22;57787;48.216;12.396;2023-03-04T03:50:04;-1.00;89.50
70366;DHT22;57787;48.216;12.396;2023-03-04T03:52:31;-1.00;90.10
70366;DHT22;57787;48.216;12.396;2023-03-04T03:54:58;-1.10;89.50
70366;DHT22;57787;48.216;12.396;2023-03-04T03:57:28;-1.10;89.60
70366;DHT22;57787;48.216;12.396;2023-03-04T03:59:54;-1.10;89.50
70366;DHT22;57787;48.216;12.396;2023-03-04T04:02:21;-1.20;89.50
70366;DHT22;57787;48.216;12.396;2023-03-04T04:04:49;-1.20;89.40
70366;DHT22;57787;48.216;12.396;2023-03-04T04:07:16;-1.20;89.80
70366;DHT22;57787;48.216;12.396;2023-03-04T04:09:43;-1.20;89.80
70366;DHT22;57787;48.216;12.396;2023-03-04T04:12:10;-1.30;89.70
70366;DHT22;57787;48.216;12.396;2023-03-04T04:14:38;-1.30;89.40
70366;DHT22;57787;48.216;12.396;2023-03-04T04:17:05;-1.30;89.70
70366;DHT22;57787;48.216;12.396;2023-03-04T04:19:31;-1.40;89.40
70366;DHT22;57787;48.216;12.396;2023-03-04T04:21:58;-1.40;90.10
70366;DHT22;57787;48.216;12.396;2023-03-04T04:24:25;-1.40;89.70
70366;DHT22;57787;48.216;12.396;2023-03-04T04:26:52;-1.40;89.30
70366;DHT22;57787;48.216;12.396;2023-03-04T04:29:18;-1.50;89.50
70366;DHT22;57787;48.216;12.396;2023-03-04T04:31:45;-1.50;89.40
70366;DHT22;57787;48.216;12.396;2023-03-04T04:34:12;-1.50;89.20
70366;DHT22;57787;48.216;12.396;2023-03-04T04:36:39;-1.60;89.10
70366;DHT22;57787;48.216;12.396;2023-03-04T04:39:06;-1.60;89.20
70366;DHT22;57787;48.216;12.396;2023-03-04T04:41:37;-1.60;89.80
70366;DHT22;57787;48.216;12.396;2023-03-04T04:44:04;-1.70;89.40
70366;DHT22;57787;48.216;12.396;2023-03-04T04:46:31;-1.70;89.30
70366;DHT22;57787;48.216;12.396;2023-03-04T04:48:58;-1.70;89.30
70366;DHT22;57787;48.216;12.396;2023-03-04T04:51:25;-1.70;89.50
70366;DHT22;57787;48.216;12.396;2023-03-04T04:53:52;-1.70;89.70
70366;DHT22;57787;48.216;12.396;2023-03-04T04:56:20;-1.70;89.50
70366;DHT22;57787;48.216;12.396;2023-03-04T04:58:47;-1.70;89.50
70366;DHT22;57787;48.216;12.396;2023-03-04T05:01:16;-1.80;89.30
70366;DHT22;57787;48.216;12.396;2023-03-04T05:03:43;-1.80;89.60
70366;DHT22;57787;48.216;12.396;2023-03-04T05:06:11;-1.80;89.50
70366;DHT22;57787;48.216;12.396;2023-03-04T05:08:39;-1.80;90.20
70366;DHT22;57787;48.216;12.396;2023-03-04T05:11:06;-1.80;89.70
70366;DHT22;57787;48.216;12.396;2023-03-04T05:13:33;-1.90;89.50
70366;DHT22;57787;48.216;12.396;2023-03-04T05:16:00;-1.90;89.20
70366;DHT22;57787;48.216;12.396;2023-03-04T05:18:27;-1.90;89.50
70366;DHT22;57787;48.216;12.396;2023-03-04T05:20:55;-1.90;89.20
70366;DHT22;57787;48.216;12.396;2023-03-04T05:23:23;-1.90;89.30
70366;DHT22;57787;48.216;12.396;2023-03-04T05:25:50;-1.90;89.20
70366;DHT22;57787;48.216;12.396;2023-03-04T05:28:19;-1.90;89.70
70366;DHT22;57787;48.216;12.396;2023-03-04T05:30:46;-2.00;89.30
70366;DHT22;57787;48.216;12.396;2023-03-04T05:33:14;-2.00;89.30
70366;DHT22;57787;48.216;12.396;2023-03-04T05:35:48;-2.10;89.50
70366;DHT22;57787;48.216;12.396;2023-03-04T05:38:17;-2.10;89.00
70366;DHT22;57787;48.216;12.396;2023-03-04T05:40:44;-2.10;89.10
70366;DHT22;57787;48.216;12.396;2023-03-04T05:43:12;-2.10;89.00
70366;DHT22;57787;48.216;12.396;2023-03-04T05:45:39;-2.10;89.30
70366;DHT22;57787;48.216;12.396;2023-03-04T05:48:07;-2.10;89.20
70366;DHT22;57787;48.216;12.396;2023-03-04T05:50:34;-2.10;89.30
70366;DHT22;57787;48.216;12.396;2023-03-04T05:53:03;-2.10;89.30
70366;DHT22;57787;48.216;12.396;2023-03-04T05:55:31;-2.10;89.70
70366;DHT22;57787;48.216;12.396;2023-03-04T05:58:00;-2.10;89.50
70366;DHT22;57787;48.216;12.396;2023-03-04T06:00:27;-2.10;89.50
70366;DHT22;57787;48.216;12.396;2023-03-04T06:02:54;-2.10;89.70
70366;DHT22;57787;48.216;12.396;2023-03-04T06:05:21;-2.10;89.80
70366;DHT22;57787;48.216;12.396;2023-03-04T06:07:48;-2.10;90.00
70366;DHT22;57787;48.216;12.396;2023-03-04T06:10:16;-2.00;89.90
70366;DHT22;57787;48.216;12.396;2023-03-04T06:12:43;-2.00;90.30
70366;DHT22;57787;48.216;12.396;2023-03-04T06:15:11;-2.00;90.50
70366;DHT22;57787;48.216;12.396;2023-03-04T06:17:38;-2.00;90.40
70366;DHT22;57787;48.216;12.396;2023-03-04T06:20:09;-1.90;90.50
70366;DHT22;57787;48.216;12.396;2023-03-04T06:22:36;-1.90;90.60
70366;DHT22;57787;48.216;12.396;2023-03-04T06:25:03;-1.80;90.80
70366;DHT22;57787;48.216;12.396;2023-03-04T06:27:30;-1.80;90.90
70366;DHT22;57787;48.216;12.396;2023-03-04T06:29:57;-1.70;91.20
70366;DHT22;57787;48.216;12.396;2023-03-04T06:32:25;-1.60;91.40
70366;DHT22;57787;48.216;12.396;2023-03-04T06:34:52;-1.50;91.40
70366;DHT22;57787;48.216;12.396;2023-03-04T06:37:18;-1.50;91.40
70366;DHT22;57787;48.216;12.396;2023-03-04T06:39:45;-1.50;91.50
70366;DHT22;57787;48.216;12.396;2023-03-04T06:42:13;-1.40;91.70
70366;DHT22;57787;48.216;12.396;2023-03-04T06:44:40;-1.30;91.70
70366;DHT22;57787;48.216;12.396;2023-03-04T06:47:07;-1.30;91.80
70366;DHT22;57787;48.216;12.396;2023-03-04T06:49:35;-1.20;91.90
70366;DHT22;57787;48.216;12.396;2023-03-04T06:52:02;-1.10;91.90
70366;DHT22;57787;48.216;12.396;2023-03-04T06:54:29;-1.00;91.90
70366;DHT22;57787;48.216;12.396;2023-03-04T06:56:58;-0.90;92.10
70366;DHT22;57787;48.216;12.396;2023-03-04T06:59:25;-0.80;92.20
70366;DHT22;57787;48.216;12.396;2023-03-04T07:01:52;-0.70;92.30
70366;DHT22;57787;48.216;12.396;2023-03-04T07:04:19;-0.60;92.50
70366;DHT22;57787;48.216;12.396;2023-03-04T07:06:48;-0.40;92.60
70366;DHT22;57787;48.216;12.396;2023-03-04T07:09:16;-0.30;92.80
70366;DHT22;57787;48.216;12.396;2023-03-04T07:11:43;-0.20;92.90
70366;DHT22;57787;48.216;12.396;2023-03-04T07:14:10;-0.10;93.00
70366;DHT22;57787;48.216;12.396;2023-03-04T07:16:38;0.00;93.20
70366;DHT22;57787;48.216;12.396;2023-03-04T07:19:05;0.10;93.30
70366;DHT22;57787;48.216;12.396;2023-03-04T07:21:32;0.20;93.40
70366;DHT22;57787;48.216;12.396;2023-03-04T07:23:59;0.30;93.30
70366;DHT22;57787;48.216;12.396;2023-03-04T07:26:27;0.40;93.40
70366;DHT22;57787;48.216;12.396;2023-03-04T07:28:54;0.50;93.40
70366;DHT22;57787;48.216;12.396;2023-03-04T07:31:25;0.60;93.50
70366;DHT22;57787;48.216;12.396;2023-03-04T07:33:56;0.70;93.40
70366;DHT22;57787;48.216;12.396;2023-03-04T07:36:27;0.80;93.50
70366;DHT22;57787;48.216;12.396;2023-03-04T07:38:57;1.00;93.60
70366;DHT22;57787;48.216;12.396;2023-03-04T07:41:24;1.00;93.60
70366;DHT22;57787;48.216;12.396;2023-03-04T07:43:51;1.20;93.60
70366;DHT22;57787;48.216;12.396;2023-03-04T07:46:18;1.30;93.60
70366;DHT22;57787;48.216;12.396;2023-03-04T07:48:45;1.50;93.60
70366;DHT22;57787;48.216;12.396;2023-03-04T07:51:13;1.60;93.80
70366;DHT22;57787;48.216;12.396;2023-03-04T07:53:45;1.70;93.80
70366;DHT22;57787;48.216;12.396;2023-03-04T07:56:13;1.90;93.80
70366;DHT22;57787;48.216;12.396;2023-03-04T07:58:43;2.00;93.00
70366;DHT22;57787;48.216;12.396;2023-03-04T08:01:14;2.20;93.40
70366;DHT22;57787;48.216;12.396;2023-03-04T08:03:41;2.30;93.40
70366;DHT22;57787;48.216;12.396;2023-03-04T08:06:11;2.50;93.40
70366;DHT22;57787;48.216;12.396;2023-03-04T08:08:38;2.60;93.40
70366;DHT22;57787;48.216;12.396;2023-03-04T08:11:06;2.70;93.00
70366;DHT22;57787;48.216;12.396;2023-03-04T08:13:36;2.90;93.00
70366;DHT22;57787;48.216;12.396;2023-03-04T08:16:03;3.00;92.60
70366;DHT22;57787;48.216;12.396;2023-03-04T08:18:30;3.20;93.00
70366;DHT22;57787;48.216;12.396;2023-03-04T08:20:57;3.30;91.40
70366;DHT22;57787;48.216;12.396;2023-03-04T08:23:24;3.40;91.90
70366;DHT22;57787;48.216;12.396;2023-03-04T08:25:51;3.50;91.40
70366;DHT22;57787;48.216;12.396;2023-03-04T08:28:17;3.60;87.60
70366;DHT22;57787;48.216;12.396;2023-03-04T08:30:50;3.70;88.70
70366;DHT22;57787;48.216;12.396;2023-03-04T08:33:19;3.80;89.10
70366;DHT22;57787;48.216;12.396;2023-03-04T08:35:46;3.90;88.80
70366;DHT22;57787;48.216;12.396;2023-03-04T08:38:13;4.10;86.10
70366;DHT22;57787;48.216;12.396;2023-03-04T08:40:42;4.20;85.30
70366;DHT22;57787;48.216;12.396;2023-03-04T08:43:09;4.30;85.60
70366;DHT22;57787;48.216;12.396;2023-03-04T08:45:36;4.40;83.20
70366;DHT22;57787;48.216;12.396;2023-03-04T08:48:03;4.50;81.40
70366;DHT22;57787;48.216;12.396;2023-03-04T08:50:30;4.70;81.30
70366;DHT22;57787;48.216;12.396;2023-03-04T08:52:59;4.80;80.10
70366;DHT22;57787;48.216;12.396;2023-03-04T08:55:28;4.90;80.40
70366;DHT22;57787;48.216;12.396;2023-03-04T08:58:00;5.00;78.50
70366;DHT22;57787;48.216;12.396;2023-03-04T09:00:28;5.20;78.70
70366;DHT22;57787;48.216;12.396;2023-03-04T09:03:06;5.30;78.30
70366;DHT22;57787;48.216;12.396;2023-03-04T09:05:33;5.40;75.90
70366;DHT22;57787;48.216;12.396;2023-03-04T09:08:01;5.50;76.10
70366;DHT22;57787;48.216;12.396;2023-03-04T09:10:28;5.60;76.40
70366;DHT22;57787;48.216;12.396;2023-03-04T09:13:01;5.80;75.10
70366;DHT22;57787;48.216;12.396;2023-03-04T09:15:33;5.90;75.20
70366;DHT22;57787;48.216;12.396;2023-03-04T09:18:04;6.00;73.40
70366;DHT22;57787;48.216;12.396;2023-03-04T09:20:33;6.00;73.20
70366;DHT22;57787;48.216;12.396;2023-03-04T09:23:01;6.10;70.50
70366;DHT22;57787;48.216;12.396;2023-03-04T09:25:28;6.20;72.60
70366;DHT22;57787;48.216;12.396;2023-03-04T09:27:56;6.30;72.30
70366;DHT22;57787;48.216;12.396;2023-03-04T09:30:25;6.30;70.10
70366;DHT22;57787;48.216;12.396;2023-03-04T09:32:54;6.40;71.10
70366;DHT22;57787;48.216;12.396;2023-03-04T09:35:22;6.50;70.50
70366;DHT22;57787;48.216;12.396;2023-03-04T09:37:51;6.60;70.40
70366;DHT22;57787;48.216;12.396;2023-03-04T09:40:21;6.60;69.50
70366;DHT22;57787;48.216;12.396;2023-03-04T09:42:52;6.70;69.30
70366;DHT22;57787;48.216;12.396;2023-03-04T09:45:22;6.80;69.20
70366;DHT22;57787;48.216;12.396;2023-03-04T09:47:57;6.90;68.20
70366;DHT22;57787;48.216;12.396;2023-03-04T09:50:25;7.10;69.30
70366;DHT22;57787;48.216;12.396;2023-03-04T09:55:42;7.20;67.00
70366;DHT22;57787;48.216;12.396;2023-03-04T10:00:57;7.30;67.70
70366;DHT22;57787;48.216;12.396;2023-03-04T10:03:53;7.30;67.90
70366;DHT22;57787;48.216;12.396;2023-03-04T10:06:24;7.40;67.30
70366;DHT22;57787;48.216;12.396;2023-03-04T10:09:03;7.50;68.00
70366;DHT22;57787;48.216;12.396;2023-03-04T10:11:36;7.50;67.00
70366;DHT22;57787;48.216;12.396;2023-03-04T10:19:58;7.60;66.20
70366;DHT22;57787;48.216;12.396;2023-03-04T10:22:19;7.70;66.70
70366;DHT22;57787;48.216;12.396;2023-03-04T10:24:55;7.80;67.10
70366;DHT22;57787;48.216;12.396;2023-03-04T10:27:22;7.80;65.20
70366;DHT22;57787;48.216;12.396;2023-03-04T10:29:50;7.90;66.30
70366;DHT22;57787;48.216;12.396;2023-03-04T10:32:17;7.90;66.20
70366;DHT22;57787;48.216;12.396;2023-03-04T10:34:53;7.90;64.50
70366;DHT22;57787;48.216;12.396;2023-03-04T10:37:20;7.90;63.80
70366;DHT22;57787;48.216;12.396;2023-03-04T10:39:47;7.90;64.30
70366;DHT22;57787;48.216;12.396;2023-03-04T10:44:58;8.10;65.60
70366;DHT22;57787;48.216;12.396;2023-03-04T10:47:29;8.30;66.00
70366;DHT22;57787;48.216;12.396;2023-03-04T10:49:58;8.20;62.50
70366;DHT22;57787;48.216;12.396;2023-03-04T10:52:34;8.20;63.20
70366;DHT22;57787;48.216;12.396;2023-03-04T10:55:02;8.10;62.00
70366;DHT22;57787;48.216;12.396;2023-03-04T10:57:38;8.20;62.70
70366;DHT22;57787;48.216;12.396;2023-03-04T11:02:46;8.30;62.40
70366;DHT22;57787;48.216;12.396;2023-03-04T11:07:46;8.30;61.50
70366;DHT22;57787;48.216;12.396;2023-03-04T11:12:59;8.50;61.70
70366;DHT22;57787;48.216;12.396;2023-03-04T11:15:27;8.40;60.60
70366;DHT22;57787;48.216;12.396;2023-03-04T11:18:02;8.50;61.40
70366;DHT22;57787;48.216;12.396;2023-03-04T11:20:33;8.50;61.00
70366;DHT22;57787;48.216;12.396;2023-03-04T11:23:03;8.50;60.90
70366;DHT22;57787;48.216;12.396;2023-03-04T11:25:32;8.50;60.10
70366;DHT22;57787;48.216;12.396;2023-03-04T11:28:03;8.50;60.90
70366;DHT22;57787;48.216;12.396;2023-03-04T11:30:40;8.60;61.20
70366;DHT22;57787;48.216;12.396;2023-03-04T11:33:11;8.80;61.20
70366;DHT22;57787;48.216;12.396;2023-03-04T11:35:56;8.70;61.30
70366;DHT22;57787;48.216;12.396;2023-03-04T11:38:31;8.70;59.60
70366;DHT22;57787;48.216;12.396;2023-03-04T11:41:00;8.80;62.60
70366;DHT22;57787;48.216;12.396;2023-03-04T11:43:36;8.80;60.70
70366;DHT22;57787;48.216;12.396;2023-03-04T11:46:10;8.80;60.50
70366;DHT22;57787;48.216;12.396;2023-03-04T11:48:48;8.80;59.90
70366;DHT22;57787;48.216;12.396;2023-03-04T11:56:23;9.00;58.90
70366;DHT22;57787;48.216;12.396;2023-03-04T12:14:43;9.30;56.10
70366;DHT22;57787;48.216;12.396;2023-03-04T12:17:27;9.30;56.60
70366;DHT22;57787;48.216;12.396;2023-03-04T12:20:02;9.30;56.10
70366;DHT22;57787;48.216;12.396;2023-03-04T12:25:15;9.40;57.40
70366;DHT22;57787;48.216;12.396;2023-03-04T12:38:21;9.60;54.70
70366;DHT22;57787;48.216;12.396;2023-03-04T12:40:55;9.80;57.00
70366;DHT22;57787;48.216;12.396;2023-03-04T12:43:32;9.80;53.90
70366;DHT22;57787;48.216;12.396;2023-03-04T12:46:06;9.90;54.20
70366;DHT22;57787;48.216;12.396;2023-03-04T12:48:41;9.90;55.00
70366;DHT22;57787;48.216;12.396;2023-03-04T12:56:07;10.00;53.60
70366;DHT22;57787;48.216;12.396;2023-03-04T12:58:41;9.90;53.40
70366;DHT22;57787;48.216;12.396;2023-03-04T13:01:10;10.00;55.80
70366;DHT22;57787;48.216;12.396;2023-03-04T13:06:45;10.20;53.40
70366;DHT22;57787;48.216;12.396;2023-03-04T13:09:24;10.20;53.50
70366;DHT22;57787;48.216;12.396;2023-03-04T13:11:54;10.20;55.40
70366;DHT22;57787;48.216;12.396;2023-03-04T13:14:28;9.90;53.60
70366;DHT22;57787;48.216;12.396;2023-03-04T13:16:56;9.70;54.10
70366;DHT22;57787;48.216;12.396;2023-03-04T13:22:40;9.30;55.10
70366;DHT22;57787;48.216;12.396;2023-03-04T13:43:40;9.20;57.00
70366;DHT22;57787;48.216;12.396;2023-03-04T13:51:31;9.10;57.30
70366;DHT22;57787;48.216;12.396;2023-03-04T13:56:32;9.10;57.10
70366;DHT22;57787;48.216;12.396;2023-03-04T14:04:01;9.00;57.90
70366;DHT22;57787;48.216;12.396;2023-03-04T14:06:41;8.90;57.70
70366;DHT22;57787;48.216;12.396;2023-03-04T14:09:26;8.90;58.20
70366;DHT22;57787;48.216;12.396;2023-03-04T14:12:04;8.80;57.20
70366;DHT22;57787;48.216;12.396;2023-03-04T14:14:43;8.80;58.20
70366;DHT22;57787;48.216;12.396;2023-03-04T14:17:27;8.70;56.60
70366;DHT22;57787;48.216;12.396;2023-03-04T14:19:55;8.60;57.70
70366;DHT22;57787;48.216;12.396;2023-03-04T14:22:29;8.50;58.60
70366;DHT22;57787;48.216;12.396;2023-03-04T14:25:06;8.40;59.00
70366;DHT22;57787;48.216;12.396;2023-03-04T14:27:49;8.30;57.10
70366;DHT22;57787;48.216;12.396;2023-03-04T14:30:21;8.10;58.70
70366;DHT22;57787;48.216;12.396;2023-03-04T14:33:07;8.00;59.90
70366;DHT22;57787;48.216;12.396;2023-03-04T14:35:35;7.90;60.30
70366;DHT22;57787;48.216;12.396;2023-03-04T14:38:14;7.90;59.80
70366;DHT22;57787;48.216;12.396;2023-03-04T14:40:46;7.70;59.50
70366;DHT22;57787;48.216;12.396;2023-03-04T14:43:39;7.70;60.90
70366;DHT22;57787;48.216;12.396;2023-03-04T14:46:10;7.60;60.90
70366;DHT22;57787;48.216;12.396;2023-03-04T14:48:39;7.60;60.90
70366;DHT22;57787;48.216;12.396;2023-03-04T14:51:32;7.40;59.70
70366;DHT22;57787;48.216;12.396;2023-03-04T14:54:02;7.20;60.30
70366;DHT22;57787;48.216;12.396;2023-03-04T14:56:30;7.10;60.50
70366;DHT22;57787;48.216;12.396;2023-03-04T14:58:57;6.80;60.30
70366;DHT22;57787;48.216;12.396;2023-03-04T15:01:41;6.70;60.30
70366;DHT22;57787;48.216;12.396;2023-03-04T15:04:10;6.60;60.90
70366;DHT22;57787;48.216;12.396;2023-03-04T15:06:49;6.50;61.30
70366;DHT22;57787;48.216;12.396;2023-03-04T15:09:20;6.40;62.50
70366;DHT22;57787;48.216;12.396;2023-03-04T15:11:49;6.30;61.90
70366;DHT22;57787;48.216;12.396;2023-03-04T15:17:02;6.30;62.60
70366;DHT22;57787;48.216;12.396;2023-03-04T15:19:30;6.20;63.10
70366;DHT22;57787;48.216;12.396;2023-03-04T15:22:03;6.00;62.80
70366;DHT22;57787;48.216;12.396;2023-03-04T15:24:32;5.80;63.10
70366;DHT22;57787;48.216;12.396;2023-03-04T15:26:58;5.80;63.60
70366;DHT22;57787;48.216;12.396;2023-03-04T15:29:27;5.80;63.50
70366;DHT22;57787;48.216;12.396;2023-03-04T15:31:56;5.80;63.60
70366;DHT22;57787;48.216;12.396;2023-03-04T15:34:25;5.70;64.00
70366;DHT22;57787;48.216;12.396;2023-03-04T15:36:53;5.60;63.60
70366;DHT22;57787;48.216;12.396;2023-03-04T15:39:22;5.50;63.70
70366;DHT22;57787;48.216;12.396;2023-03-04T15:41:48;5.30;64.00
70366;DHT22;57787;48.216;12.396;2023-03-04T15:44:16;5.30;64.00
70366;DHT22;57787;48.216;12.396;2023-03-04T15:46:43;5.10;64.70
70366;DHT22;57787;48.216;12.396;2023-03-04T15:49:10;5.00;65.00
70366;DHT22;57787;48.216;12.396;2023-03-04T15:51:42;4.90;65.00
70366;DHT22;57787;48.216;12.396;2023-03-04T15:54:10;4.90;64.90
70366;DHT22;57787;48.216;12.396;2023-03-04T15:56:40;4.80;65.20
70366;DHT22;57787;48.216;12.396;2023-03-04T15:59:10;4.80;65.40
70366;DHT22;57787;48.216;12.396;2023-03-04T16:01:37;4.70;65.40
70366;DHT22;57787;48.216;12.396;2023-03-04T16:04:23;4.60;66.30
70366;DHT22;57787;48.216;12.396;2023-03-04T16:06:50;4.50;66.40
70366;DHT22;57787;48.216;12.396;2023-03-04T16:09:17;4.50;66.40
70366;DHT22;57787;48.216;12.396;2023-03-04T16:11:46;4.30;65.70
70366;DHT22;57787;48.216;12.396;2023-03-04T16:14:13;4.20;66.30
70366;DHT22;57787;48.216;12.396;2023-03-04T16:16:41;4.20;66.50
70366;DHT22;57787;48.216;12.396;2023-03-04T16:19:12;4.20;67.00
70366;DHT22;57787;48.216;12.396;2023-03-04T16:21:38;4.00;66.80
70366;DHT22;57787;48.216;12.396;2023-03-04T16:24:09;4.00;67.40
70366;DHT22;57787;48.216;12.396;2023-03-04T16:26:37;3.90;67.60
70366;DHT22;57787;48.216;12.396;2023-03-04T16:29:04;3.80;67.50
70366;DHT22;57787;48.216;12.396;2023-03-04T16:31:31;3.70;67.60
70366;DHT22;57787;48.216;12.396;2023-03-04T16:33:58;3.60;68.00
70366;DHT22;57787;48.216;12.396;2023-03-04T16:36:27;3.50;67.80
70366;DHT22;57787;48.216;12.396;2023-03-04T16:38:55;3.40;68.50
70366;DHT22;57787;48.216;12.396;2023-03-04T16:41:26;3.30;68.30
70366;DHT22;57787;48.216;12.396;2023-03-04T16:44:00;3.20;68.70
70366;DHT22;57787;48.216;12.396;2023-03-04T16:46:26;3.10;69.30
70366;DHT22;57787;48.216;12.396;2023-03-04T16:48:53;3.00;69.30
70366;DHT22;57787;48.216;12.396;2023-03-04T16:51:20;2.90;69.30
70366;DHT22;57787;48.216;12.396;2023-03-04T16:53:55;2.90;69.10
70366;DHT22;57787;48.216;12.396;2023-03-04T16:56:24;2.80;69.50
70366;DHT22;57787;48.216;12.396;2023-03-04T16:58:51;2.60;69.60
70366;DHT22;57787;48.216;12.396;2023-03-04T17:01:22;2.60;69.80
70366;DHT22;57787;48.216;12.396;2023-03-04T17:03:50;2.50;70.10
70366;DHT22;57787;48.216;12.396;2023-03-04T17:06:20;2.40;70.40
70366;DHT22;57787;48.216;12.396;2023-03-04T17:08:52;2.30;70.90
70366;DHT22;57787;48.216;12.396;2023-03-04T17:11:19;2.30;70.60
70366;DHT22;57787;48.216;12.396;2023-03-04T17:13:48;2.20;70.60
70366;DHT22;57787;48.216;12.396;2023-03-04T17:16:18;2.10;70.40
70366;DHT22;57787;48.216;12.396;2023-03-04T17:18:45;2.00;70.60
70366;DHT22;57787;48.216;12.396;2023-03-04T17:21:13;1.90;71.00
70366;DHT22;57787;48.216;12.396;2023-03-04T17:23:40;1.80;71.30
70366;DHT22;57787;48.216;12.396;2023-03-04T17:26:07;1.80;71.30